Time;durP1;ratioP1;P1;durP2;ratioP2;P2;SDS_P1;SDS_P2;PMS_P1;PMS_P2;Temp;Humidity;BMP_temperature;BMP_pressure;BME280_temperature;BME280_humidity;BME280_pressure;Samples;Min_cycle;Max_cycle;Signal;HPM_P1;HPM_P2
2022/11/12 00:00:16;;;;;;;51.57;14.90;;;;;;;5.72;100.00;101814.84;5011058;28;20220;-63
2022/11/12 00:02:42;;;;;;;20.60;13.73;;;;;;;5.72;100.00;101819.97;5032087;28;20668;-63
2022/11/12 00:05:07;;;;;;;36.87;14.07;;;;;;;5.94;100.00;101815.53;5029259;28;20263;-62
2022/11/12 00:07:33;;;;;;;24.13;13.60;;;;;;;6.07;100.00;101814.63;5030200;28;20536;-63
2022/11/12 00:09:58;;;;;;;37.30;14.47;;;;;;;6.12;100.00;101815.44;5031851;28;20585;-63
2022/11/12 00:12:23;;;;;;;31.17;13.63;;;;;;;6.11;100.00;101818.00;5023415;28;20228;-62
2022/11/12 00:14:49;;;;;;;27.67;13.93;;;;;;;6.06;100.00;101818.03;5031735;28;20177;-63
2022/11/12 00:17:14;;;;;;;23.90;14.63;;;;;;;5.70;100.00;101811.47;5034691;28;20219;-62
2022/11/12 00:19:39;;;;;;;33.20;13.80;;;;;;;5.56;100.00;101812.41;5031825;28;20545;-63
2022/11/12 00:22:04;;;;;;;29.90;13.57;;;;;;;5.69;100.00;101814.88;5036813;28;20230;-63
2022/11/12 00:24:30;;;;;;;26.30;13.80;;;;;;;5.76;100.00;101819.09;5031498;28;20292;-62
2022/11/12 00:26:55;;;;;;;32.20;13.33;;;;;;;5.87;100.00;101819.88;5031114;28;20185;-61
2022/11/12 00:29:20;;;;;;;27.97;13.93;;;;;;;5.94;100.00;101815.53;5031430;28;20230;-63
2022/11/12 00:31:45;;;;;;;42.13;14.00;;;;;;;6.09;100.00;101819.72;5004638;28;20681;-62
2022/11/12 00:34:11;;;;;;;39.57;13.63;;;;;;;6.11;100.00;101823.13;5034142;28;20196;-62
2022/11/12 00:36:36;;;;;;;60.23;13.67;;;;;;;6.09;100.00;101820.59;5030699;28;20195;-63
2022/11/12 00:39:03;;;;;;;62.50;13.57;;;;;;;5.81;100.00;101823.31;5051604;28;20192;-62
2022/11/12 00:41:28;;;;;;;104.53;14.73;;;;;;;5.86;100.00;101823.28;5035645;28;20222;-63
2022/11/12 00:43:53;;;;;;;50.27;14.23;;;;;;;5.88;100.00;101826.69;5055977;28;20513;-62
2022/11/12 00:46:18;;;;;;;54.10;14.47;;;;;;;5.78;100.00;101827.56;5050556;28;20181;-63
2022/11/12 00:48:44;;;;;;;55.80;14.27;;;;;;;5.76;100.00;101829.31;5051370;28;20180;-62
2022/11/12 00:51:09;;;;;;;35.63;14.17;;;;;;;5.94;100.00;101835.97;5048886;28;20219;-62
2022/11/12 00:53:34;;;;;;;36.10;15.43;;;;;;;5.85;100.00;101821.56;5052978;28;20181;-63
2022/11/12 00:56:01;;;;;;;41.43;16.13;;;;;;;5.76;100.00;101819.09;5049535;28;20638;-62
2022/11/12 00:58:29;;;;;;;24.83;14.57;;;;;;;5.98;100.00;101830.00;5032001;28;20708;-63
2022/11/12 01:00:54;;;;;;;34.37;14.47;;;;;;;5.97;100.00;101829.16;5031072;28;20609;-62
2022/11/12 01:03:19;;;;;;;45.13;14.57;;;;;;;5.94;100.00;101829.19;5060275;28;20321;-62
2022/11/12 01:05:45;;;;;;;42.90;14.90;;;;;;;6.10;100.00;101831.63;5033141;28;20179;-62
2022/11/12 01:08:10;;;;;;;107.03;16.10;;;;;;;6.12;100.00;101824.81;5032567;28;20187;-62
2022/11/12 01:10:35;;;;;;;57.40;15.90;;;;;;;6.27;100.00;101827.22;5040961;28;20234;-63
2022/11/12 01:13:00;;;;;;;56.10;15.20;;;;;;;6.20;100.00;101817.06;5062579;28;20196;-62
2022/11/12 01:15:26;;;;;;;47.17;15.10;;;;;;;6.08;100.00;101824.00;5051012;28;20184;-62
2022/11/12 01:17:51;;;;;;;36.43;14.07;;;;;;;6.18;100.00;101824.78;5050644;28;20666;-62
2022/11/12 01:20:16;;;;;;;64.70;13.60;;;;;;;6.06;100.00;101817.19;5042897;28;20235;-62
2022/11/12 01:22:42;;;;;;;58.83;14.20;;;;;;;6.18;100.00;101812.00;5065948;28;20193;-63
2022/11/12 01:25:07;;;;;;;37.27;12.90;;;;;;;6.10;100.00;101819.72;5055060;28;20198;-64
2022/11/12 01:27:33;;;;;;;39.40;13.23;;;;;;;6.10;100.00;101814.63;5054384;28;20180;-63
2022/11/12 01:29:58;;;;;;;66.40;14.13;;;;;;;5.95;100.00;101807.91;5054685;28;20181;-63
2022/11/12 01:32:24;;;;;;;28.67;12.80;;;;;;;5.96;100.00;101806.19;5060005;28;20225;-63
2022/11/12 01:34:49;;;;;;;64.73;14.10;;;;;;;5.89;100.00;101813.06;5036676;28;20183;-62
2022/11/12 01:37:15;;;;;;;74.50;12.73;;;;;;;5.84;100.00;101817.31;5054252;28;20224;-62
2022/11/12 01:39:40;;;;;;;37.83;11.97;;;;;;;5.71;100.00;101816.56;5054895;28;20186;-63
2022/11/12 01:42:05;;;;;;;40.97;11.70;;;;;;;5.71;100.00;101808.91;5059936;28;20228;-62
2022/11/12 01:44:34;;;;;;;59.97;12.90;;;;;;;5.70;100.00;101812.31;5054475;28;20281;-63
2022/11/12 01:47:03;;;;;;;34.83;12.60;;;;;;;5.80;100.00;101805.44;5035740;28;20239;-63
2022/11/12 01:49:37;;;;;;;36.03;11.77;;;;;;;5.73;100.00;101804.66;5036086;28;20188;-63
2022/11/12 01:52:28;;;;;;;42.53;11.90;;;;;;;5.53;100.00;101809.03;5045650;28;20255;-63
2022/11/12 01:55:00;;;;;;;32.17;10.33;;;;;;;5.64;100.00;101809.81;5049235;28;20199;-62
2022/11/12 01:57:31;;;;;;;16.77;10.00;;;;;;;5.61;100.00;101805.56;5059784;28;20649;-63
2022/11/12 02:00:03;;;;;;;61.73;10.90;;;;;;;5.48;100.00;101797.16;5069734;28;20207;-62
2022/11/12 02:02:30;;;;;;;17.07;10.00;;;;;;;5.64;100.00;101802.16;5007201;28;20216;-62
2022/11/12 02:04:56;;;;;;;34.30;9.53;;;;;;;5.63;100.00;101785.13;5054654;28;20217;-62
2022/11/12 02:07:23;;;;;;;25.80;9.97;;;;;;;5.61;100.00;101792.81;5024090;28;20322;-64
2022/11/12 02:09:49;;;;;;;31.83;10.23;;;;;;;5.61;100.00;101792.81;5034684;28;20181;-62
2022/11/12 02:14:58;;;;;;;33.03;10.77;;;;;;;5.62;100.00;101794.50;5054208;28;20191;-63
2022/11/12 02:17:23;;;;;;;211.57;14.50;;;;;;;5.69;100.00;101784.25;5053522;28;20179;-63
2022/11/12 02:19:51;;;;;;;141.63;13.20;;;;;;;5.64;100.00;101789.38;5053651;28;20183;-63
2022/11/12 02:22:17;;;;;;;27.70;8.67;;;;;;;5.59;100.00;101788.56;5042366;28;20220;-64
2022/11/12 02:24:42;;;;;;;20.97;9.40;;;;;;;5.57;100.00;101787.72;5053915;28;20192;-64
2022/11/12 02:27:10;;;;;;;34.73;9.17;;;;;;;5.33;100.00;101792.97;5050258;28;20181;-63
2022/11/12 02:29:35;;;;;;;25.40;8.40;;;;;;;5.29;100.00;101798.09;5016069;28;20632;-62
2022/11/12 02:32:00;;;;;;;48.17;9.97;;;;;;;5.46;100.00;101793.75;5025447;28;20228;-64
2022/11/12 02:34:26;;;;;;;44.73;9.77;;;;;;;5.51;100.00;101788.63;5026437;28;20210;-62
2022/11/12 02:36:51;;;;;;;49.97;9.90;;;;;;;5.65;100.00;101793.63;5046846;28;20558;-63
2022/11/12 02:39:17;;;;;;;37.03;8.97;;;;;;;5.65;100.00;101785.97;5049760;28;20525;-63
2022/11/12 02:41:43;;;;;;;17.10;8.37;;;;;;;5.65;100.00;101791.91;5040542;28;20740;-63
2022/11/12 02:44:08;;;;;;;24.53;8.80;;;;;;;5.61;100.00;101787.69;5044322;28;20212;-62
2022/11/12 02:46:33;;;;;;;48.53;8.83;;;;;;;5.69;100.00;101784.25;5050598;28;20239;-64
2022/11/12 02:48:58;;;;;;;19.50;7.67;;;;;;;5.44;100.00;101786.97;5034083;28;20646;-64
2022/11/12 02:51:24;;;;;;;10.13;8.00;;;;;;;5.34;100.00;101789.56;5036357;28;20231;-63
2022/11/12 02:53:49;;;;;;;15.53;7.00;;;;;;;5.39;100.00;101793.81;5047278;28;20221;-64
2022/11/12 02:56:14;;;;;;;120.17;10.43;;;;;;;5.19;100.00;101787.09;5046730;28;20179;-64
2022/11/12 02:58:39;;;;;;;38.20;9.00;;;;;;;5.15;100.00;101785.44;5055467;28;20252;-63
2022/11/12 03:01:05;;;;;;;60.37;9.33;;;;;;;5.09;100.00;101793.94;5040284;28;20620;-63
2022/11/12 03:03:30;;;;;;;47.77;9.40;;;;;;;4.97;100.00;101794.00;5026899;28;20231;-63
2022/11/12 03:05:58;;;;;;;34.07;7.70;;;;;;;4.81;100.00;101788.09;5047621;28;20748;-63
2022/11/12 03:08:23;;;;;;;54.63;8.87;;;;;;;4.53;100.00;101799.22;5032364;28;20189;-64
2022/11/12 03:10:49;;;;;;;31.10;8.17;;;;;;;4.71;100.00;101791.53;5040571;28;20640;-63
2022/11/12 03:13:14;;;;;;;35.63;8.00;;;;;;;4.60;100.00;101796.66;5051235;28;20215;-63
2022/11/12 03:15:39;;;;;;;16.70;7.30;;;;;;;4.74;100.00;101789.84;5046728;28;20509;-63
2022/11/12 03:18:05;;;;;;;28.27;9.23;;;;;;;5.12;100.00;101791.38;5048751;28;20528;-63
2022/11/12 03:20:30;;;;;;;22.97;9.27;;;;;;;5.26;100.00;101787.91;5039396;28;20730;-62
2022/11/12 03:22:59;;;;;;;20.00;8.67;;;;;;;5.40;100.00;101788.69;5048758;28;20191;-63
2022/11/12 03:25:25;;;;;;;15.57;9.00;;;;;;;5.44;100.00;101782.69;5050802;28;20280;-63
2022/11/12 03:28:03;;;;;;;23.23;8.20;;;;;;;5.29;100.00;101783.63;5033395;28;20277;-64
2022/11/12 03:30:31;;;;;;;18.30;8.10;;;;;;;5.48;100.00;101781.84;5024296;28;20225;-63
2022/11/12 03:32:56;;;;;;;22.33;8.40;;;;;;;5.57;100.00;101782.63;5026277;28;20195;-63
2022/11/12 03:35:22;;;;;;;18.13;8.33;;;;;;;5.62;100.00;101770.69;5047298;28;20241;-63
2022/11/12 03:37:48;;;;;;;25.60;8.50;;;;;;;5.81;100.00;101769.66;5030650;28;20225;-64
2022/11/12 03:40:13;;;;;;;49.33;8.57;;;;;;;5.48;100.00;101768.22;5040466;28;20557;-63
2022/11/12 03:42:47;;;;;;;25.93;8.50;;;;;;;5.38;100.00;101777.63;5033772;28;20205;-63
2022/11/12 03:45:13;;;;;;;24.07;8.30;;;;;;;5.52;100.00;101772.47;5051328;28;20237;-63
2022/11/12 03:47:46;;;;;;;23.83;8.43;;;;;;;5.42;100.00;101774.22;5028219;28;20525;-63
2022/11/12 03:50:14;;;;;;;43.73;8.97;;;;;;;5.31;100.00;101766.63;5023126;28;20201;-64
2022/11/12 03:52:44;;;;;;;27.00;8.07;;;;;;;5.20;100.00;101764.97;5028249;28;20203;-63
2022/11/12 03:55:10;;;;;;;47.73;8.60;;;;;;;5.21;100.00;101759.88;5032181;28;20714;-63
2022/11/12 03:57:35;;;;;;;69.67;9.00;;;;;;;5.22;100.00;101760.72;5050251;28;20190;-63
2022/11/12 04:00:01;;;;;;;44.03;8.47;;;;;;;5.14;100.00;101755.66;5049900;28;21053;-63
2022/11/12 04:02:28;;;;;;;33.20;9.03;;;;;;;5.24;100.00;101756.47;5016389;28;20237;-63
2022/11/12 04:10:23;;;;;;;118.87;10.97;;;;;;;4.74;100.00;101761.78;5028785;28;20254;-63
2022/11/12 04:15:32;;;;;;;64.33;9.50;;;;;;;4.92;100.00;101768.50;5035360;28;20672;-63
2022/11/12 04:23:25;;;;;;;107.27;10.97;;;;;;;4.83;100.00;101769.38;5048166;28;20200;-63
2022/11/12 04:28:34;;;;;;;77.93;9.80;;;;;;;4.98;100.00;101770.19;5045055;28;20203;-63
2022/11/12 04:30:59;;;;;;;41.70;8.23;;;;;;;4.86;100.00;101765.97;5014077;28;20230;-63
2022/11/12 04:33:25;;;;;;;61.63;9.47;;;;;;;5.09;100.00;101770.16;5034582;28;20292;-63
2022/11/12 04:35:50;;;;;;;23.30;8.10;;;;;;;5.29;100.00;101768.31;5051167;28;20628;-63
2022/11/12 04:38:15;;;;;;;57.83;9.53;;;;;;;5.11;100.00;101766.72;5044364;28;20226;-63
2022/11/12 04:46:08;;;;;;;33.40;8.77;;;;;;;4.99;100.00;101766.78;5046119;28;20185;-64
2022/11/12 04:48:34;;;;;;;33.47;8.77;;;;;;;5.18;100.00;101772.63;5028925;28;20173;-64
2022/11/12 04:51:01;;;;;;;58.03;9.60;;;;;;;5.07;100.00;101779.50;5038660;28;20234;-63
2022/11/12 04:53:28;;;;;;;32.03;8.30;;;;;;;5.12;100.00;101775.22;5038582;28;20209;-63
2022/11/12 04:55:56;;;;;;;38.47;9.87;;;;;;;5.29;100.00;101781.06;5031569;28;20274;-63
2022/11/12 04:58:22;;;;;;;50.43;9.13;;;;;;;5.45;100.00;101784.38;5045292;28;20205;-62
2022/11/12 05:00:48;;;;;;;147.90;10.90;;;;;;;5.45;100.00;101781.84;5045778;28;20253;-63
2022/11/12 05:03:14;;;;;;;54.60;9.10;;;;;;;5.34;100.00;101774.25;5031350;28;20187;-64
2022/11/12 05:05:39;;;;;;;35.60;9.47;;;;;;;5.41;100.00;101774.19;5035039;28;20548;-64
2022/11/12 05:08:04;;;;;;;77.43;9.87;;;;;;;5.29;100.00;101778.53;5055330;28;20207;-64
2022/11/12 05:10:30;;;;;;;90.87;10.87;;;;;;;5.09;100.00;101781.19;5041266;28;20733;-64
2022/11/12 05:12:55;;;;;;;26.50;10.07;;;;;;;5.30;100.00;101771.75;5030817;28;20591;-63
2022/11/12 05:15:21;;;;;;;29.33;8.03;;;;;;;5.35;100.00;101775.09;5053677;28;20202;-64
2022/11/12 05:17:46;;;;;;;36.40;8.43;;;;;;;5.37;100.00;101773.41;5053010;28;20299;-64
2022/11/12 05:20:12;;;;;;;17.73;8.43;;;;;;;5.43;100.00;101775.91;5037828;28;20556;-62
2022/11/12 05:22:38;;;;;;;116.17;11.33;;;;;;;5.37;100.00;101764.88;5041162;28;20217;-65
2022/11/12 05:25:04;;;;;;;89.17;11.57;;;;;;;5.35;100.00;101772.56;5050222;28;20261;-64
2022/11/12 05:27:29;;;;;;;73.00;10.83;;;;;;;5.47;100.00;101774.16;5035197;28;20198;-63
2022/11/12 05:29:54;;;;;;;108.33;11.73;;;;;;;5.44;100.00;101777.59;5023413;28;20650;-63
2022/11/12 05:32:20;;;;;;;185.23;13.53;;;;;;;5.28;100.00;101787.06;5044700;28;20622;-63
2022/11/12 05:34:45;;;;;;;67.80;12.80;;;;;;;5.18;100.00;101787.94;5053475;28;20198;-63
2022/11/12 05:37:12;;;;;;;100.37;13.00;;;;;;;5.30;100.00;101779.41;5054148;28;20635;-63
2022/11/12 05:39:37;;;;;;;59.43;12.53;;;;;;;5.09;100.00;101782.91;5038734;28;20184;-63
2022/11/12 05:42:03;;;;;;;98.30;12.20;;;;;;;4.96;100.00;101788.06;5012927;28;20230;-63
2022/11/12 05:44:29;;;;;;;130.97;14.80;;;;;;;4.83;100.00;101781.31;5050328;28;20190;-62
2022/11/12 05:46:54;;;;;;;59.67;12.47;;;;;;;4.74;100.00;101787.28;5055834;28;20218;-63
2022/11/12 05:49:20;;;;;;;156.87;14.27;;;;;;;4.68;100.00;101785.59;5045361;28;20543;-62
2022/11/12 05:51:46;;;;;;;139.70;14.33;;;;;;;4.61;100.00;101789.00;5013185;28;20238;-63
2022/11/12 05:54:11;;;;;;;61.87;12.77;;;;;;;4.58;100.00;101790.75;5048382;28;20203;-62
2022/11/12 05:56:37;;;;;;;110.33;13.87;;;;;;;4.43;100.00;101795.00;5037321;28;20558;-62
2022/11/12 05:59:05;;;;;;;105.07;12.50;;;;;;;4.39;100.00;101793.31;5049712;28;20721;-62
2022/11/12 06:01:31;;;;;;;48.60;11.20;;;;;;;4.30;100.00;101803.50;5033555;28;20232;-62
2022/11/12 06:03:57;;;;;;;122.83;13.53;;;;;;;4.40;100.00;101806.91;5030475;28;20264;-62
2022/11/12 06:06:22;;;;;;;43.73;10.80;;;;;;;4.26;100.00;101802.66;5034618;28;20265;-63
2022/11/12 06:08:47;;;;;;;36.50;11.20;;;;;;;4.33;100.00;101803.53;5036817;28;20632;-63
2022/11/12 06:11:13;;;;;;;70.70;11.70;;;;;;;4.34;100.00;101811.16;5041720;28;20229;-63
2022/11/12 06:13:38;;;;;;;83.60;11.60;;;;;;;4.43;100.00;101812.84;5048152;28;20225;-63
2022/11/12 06:16:04;;;;;;;49.10;10.47;;;;;;;4.45;100.00;101811.16;5047437;28;20228;-63
2022/11/12 06:18:29;;;;;;;68.60;10.97;;;;;;;4.45;100.00;101806.06;5053978;28;20196;-63
2022/11/12 06:21:19;;;;;;;68.77;12.80;;;;;;;4.46;100.00;101809.44;5035832;28;20221;-62
2022/11/12 06:23:45;;;;;;;45.37;10.40;;;;;;;4.48;100.00;101808.56;5047861;28;20239;-63
2022/11/12 06:26:11;;;;;;;28.73;10.50;;;;;;;4.45;100.00;101815.38;5034850;28;20289;-62
2022/11/12 06:28:36;;;;;;;66.93;11.87;;;;;;;4.46;100.00;101810.28;5053129;28;20704;-62
2022/11/12 06:31:01;;;;;;;23.37;10.50;;;;;;;4.60;100.00;101811.94;5035377;28;20231;-62
2022/11/12 06:33:26;;;;;;;49.73;11.03;;;;;;;4.58;100.00;101811.13;5047477;28;20217;-63
2022/11/12 06:36:01;;;;;;;48.83;11.43;;;;;;;4.63;100.00;101812.78;5053805;28;20205;-62
2022/11/12 06:38:34;;;;;;;98.43;12.67;;;;;;;4.60;100.00;101819.59;5034319;28;20213;-63
2022/11/12 06:40:59;;;;;;;83.20;13.13;;;;;;;4.53;100.00;101814.50;5022818;28;20630;-62
2022/11/12 06:43:28;;;;;;;75.73;12.57;;;;;;;4.44;100.00;101821.31;5052979;28;20189;-63
2022/11/12 06:45:53;;;;;;;107.30;12.93;;;;;;;4.36;100.00;101817.06;5035267;28;20244;-63
2022/11/12 06:48:18;;;;;;;36.67;12.10;;;;;;;4.43;100.00;101815.38;5052885;28;20591;-62
2022/11/12 06:50:44;;;;;;;48.73;11.73;;;;;;;4.44;100.00;101816.22;5036967;28;20281;-63
2022/11/12 06:53:09;;;;;;;50.57;11.07;;;;;;;4.48;100.00;101811.13;5024679;28;20205;-62
2022/11/12 06:55:35;;;;;;;53.50;10.47;;;;;;;4.58;100.00;101811.97;5053317;28;20182;-64
2022/11/12 06:58:00;;;;;;;30.40;10.83;;;;;;;4.59;100.00;101816.22;5064951;28;20195;-65
2022/11/12 07:00:25;;;;;;;30.30;10.83;;;;;;;4.58;100.00;101813.66;5046971;28;20213;-64
2022/11/12 07:02:51;;;;;;;36.77;10.53;;;;;;;4.57;100.00;101814.53;5048876;28;20200;-63
2022/11/12 07:05:16;;;;;;;55.27;11.10;;;;;;;4.50;100.00;101813.66;5052425;28;20677;-62
2022/11/12 07:07:41;;;;;;;33.93;11.53;;;;;;;4.58;100.00;101818.78;5031394;28;20248;-62
2022/11/12 07:10:07;;;;;;;36.67;11.40;;;;;;;4.64;100.00;101817.03;5036630;28;20185;-63
2022/11/12 07:12:32;;;;;;;34.80;12.53;;;;;;;4.52;100.00;101815.34;5045799;28;20207;-63
2022/11/12 07:14:58;;;;;;;34.27;11.80;;;;;;;4.74;100.00;101809.34;5051528;28;20833;-63
2022/11/12 07:17:23;;;;;;;37.63;12.00;;;;;;;4.53;100.00;101821.31;5051521;28;20192;-63
2022/11/12 07:19:49;;;;;;;24.27;12.20;;;;;;;4.87;100.00;101816.13;5051626;28;20188;-64
2022/11/12 07:22:14;;;;;;;25.67;11.40;;;;;;;5.07;100.00;101817.75;5038565;28;20736;-64
2022/11/12 07:24:39;;;;;;;33.80;10.77;;;;;;;5.02;100.00;101820.31;5051634;28;20189;-64
2022/11/12 07:27:05;;;;;;;22.57;12.60;;;;;;;5.01;100.00;101822.03;5052121;28;20236;-63
2022/11/12 07:29:30;;;;;;;37.73;11.73;;;;;;;4.84;100.00;101826.34;5034247;28;20191;-62
2022/11/12 07:31:55;;;;;;;43.80;12.07;;;;;;;5.08;100.00;101830.50;5040122;28;20230;-63
2022/11/12 07:34:21;;;;;;;65.40;13.87;;;;;;;5.20;100.00;101824.50;5045701;28;20192;-63
2022/11/12 07:36:47;;;;;;;42.33;12.60;;;;;;;5.16;100.00;101830.50;5049468;28;20187;-62
2022/11/12 07:39:12;;;;;;;37.13;13.60;;;;;;;5.08;100.00;101824.56;5033363;28;20518;-63
2022/11/12 07:41:38;;;;;;;34.17;12.97;;;;;;;5.06;100.00;101826.25;5040295;28;20220;-63
2022/11/12 07:44:03;;;;;;;41.83;14.23;;;;;;;4.97;100.00;101834.78;5051213;28;20181;-63
2022/11/12 07:46:28;;;;;;;24.13;13.60;;;;;;;5.09;100.00;101829.66;5051450;28;20214;-62
2022/11/12 07:48:55;;;;;;;45.47;14.63;;;;;;;5.27;100.00;101831.28;5051098;28;20214;-62
2022/11/12 07:51:23;;;;;;;42.40;14.63;;;;;;;5.42;100.00;101832.06;5041581;28;20234;-63
2022/11/12 07:53:50;;;;;;;35.17;13.53;;;;;;;5.49;100.00;101826.06;5032829;28;20174;-63
2022/11/12 07:56:17;;;;;;;39.23;14.60;;;;;;;5.54;100.00;101816.66;5033220;28;20181;-64
2022/11/12 07:58:43;;;;;;;23.63;14.30;;;;;;;5.59;100.00;101809.81;5036095;28;20266;-62
2022/11/12 08:01:18;;;;;;;28.83;14.27;;;;;;;5.49;100.00;101820.97;5032062;28;20218;-63
2022/11/12 08:03:43;;;;;;;22.03;14.33;;;;;;;5.67;100.00;101812.34;5032860;28;20649;-63
2022/11/12 08:06:08;;;;;;;28.20;14.80;;;;;;;5.71;100.00;101815.75;5051644;28;20278;-62
2022/11/12 08:08:34;;;;;;;24.10;14.60;;;;;;;5.77;100.00;101823.34;5050309;28;20192;-63
2022/11/12 08:10:59;;;;;;;23.50;14.57;;;;;;;5.62;100.00;101814.94;5043394;28;20641;-62
2022/11/12 08:13:24;;;;;;;19.70;14.63;;;;;;;5.74;100.00;101818.25;5042458;28;20212;-63
2022/11/12 08:15:50;;;;;;;23.37;15.20;;;;;;;5.68;100.00;101815.75;5039766;28;20448;-63
2022/11/12 08:18:16;;;;;;;22.93;14.80;;;;;;;5.69;100.00;101812.34;5032257;28;20282;-62
2022/11/12 08:20:42;;;;;;;24.10;14.40;;;;;;;5.44;100.00;101818.41;5023250;28;20655;-63
2022/11/12 08:23:07;;;;;;;18.23;14.70;;;;;;;5.68;100.00;101810.63;5050404;28;20188;-63
2022/11/12 08:25:37;;;;;;;22.47;13.90;;;;;;;5.89;100.00;101807.94;5033459;28;20279;-63
2022/11/12 08:28:02;;;;;;;26.77;14.93;;;;;;;6.06;100.00;101812.09;5024174;28;20596;-64
2022/11/12 08:30:28;;;;;;;21.60;14.53;;;;;;;5.84;100.00;101812.22;5019884;28;20235;-63
2022/11/12 08:32:56;;;;;;;27.70;14.23;;;;;;;5.90;100.00;101809.63;5029477;28;20231;-61
2022/11/12 08:35:22;;;;;;;16.00;12.90;;;;;;;6.12;100.00;101810.31;5032299;28;20238;-63
2022/11/12 08:37:47;;;;;;;24.23;14.47;;;;;;;6.16;100.00;101810.31;5050494;28;20219;-62
2022/11/12 08:40:12;;;;;;;33.17;14.70;;;;;;;6.27;100.00;101804.22;5038682;28;20188;-63
2022/11/12 08:42:38;;;;;;;22.23;13.53;;;;;;;6.33;100.00;101811.00;5049545;28;20474;-62
2022/11/12 08:45:03;;;;;;;22.73;14.07;;;;;;;6.08;100.00;101811.22;5033296;28;20223;-62
2022/11/12 08:47:28;;;;;;;22.00;13.30;;;;;;;6.30;100.00;101805.91;5032666;28;20283;-62
2022/11/12 08:49:54;;;;;;;23.30;13.80;;;;;;;6.33;100.00;101812.72;5051650;28;20192;-62
2022/11/12 08:52:19;;;;;;;30.00;15.33;;;;;;;6.31;100.00;101815.28;5039478;28;20290;-62
2022/11/12 08:54:44;;;;;;;18.17;14.40;;;;;;;6.21;100.00;101816.22;5051440;28;20658;-62
2022/11/12 08:57:10;;;;;;;24.93;14.17;;;;;;;5.82;100.00;101822.44;5055676;28;20184;-62
2022/11/12 08:59:35;;;;;;;20.60;12.67;;;;;;;5.69;100.00;101815.72;5058456;28;20296;-62
2022/11/12 09:02:00;;;;;;;19.63;13.27;;;;;;;5.82;100.00;101813.94;5050627;28;20228;-63
2022/11/12 09:04:25;;;;;;;18.77;13.33;;;;;;;6.04;100.00;101814.66;5033190;28;20254;-63
2022/11/12 09:06:53;;;;;;;18.13;12.50;;;;;;;6.28;100.00;101820.44;5050803;28;20168;-62
2022/11/12 09:09:19;;;;;;;16.13;13.10;;;;;;;6.25;100.00;101813.63;5050958;28;20189;-62
2022/11/12 09:11:44;;;;;;;17.30;12.97;;;;;;;6.12;100.00;101812.88;5042523;28;20258;-62
2022/11/12 09:14:09;;;;;;;20.67;12.93;;;;;;;6.10;100.00;101821.41;5050657;28;20269;-62
2022/11/12 09:16:34;;;;;;;17.07;13.00;;;;;;;6.01;100.00;101824.06;5050106;28;20230;-63
2022/11/12 09:19:00;;;;;;;19.10;13.30;;;;;;;6.31;100.00;101820.38;5051190;28;20267;-62
2022/11/12 09:21:25;;;;;;;22.63;12.87;;;;;;;6.41;100.00;101804.13;5022086;28;20231;-62
2022/11/12 09:23:50;;;;;;;14.80;12.20;;;;;;;6.22;100.00;101807.69;5050720;28;20185;-63
2022/11/12 09:26:15;;;;;;;23.77;13.20;;;;;;;6.19;100.00;101815.38;5050288;28;20185;-64
2022/11/12 09:28:41;;;;;;;26.40;13.17;;;;;;;6.10;100.00;101818.88;5050797;28;20227;-63
2022/11/12 09:31:07;;;;;;;20.63;13.73;;;;;;;6.41;100.00;101824.56;5039244;28;20318;-63
2022/11/12 09:33:33;;;;;;;16.63;12.53;;;;;;;6.55;100.00;101805.66;5032945;28;20220;-62
2022/11/12 09:36:02;;;;;;;20.17;15.13;;;;;;;6.32;100.00;101809.31;5032387;28;20530;-62
2022/11/12 09:38:28;;;;;;;16.40;12.97;;;;;;;6.33;100.00;101812.72;5050139;28;20564;-62
2022/11/12 09:41:16;;;;;;;20.13;12.73;;;;;;;6.22;100.00;101803.44;5040408;28;20308;-62
2022/11/12 09:43:52;;;;;;;19.53;14.00;;;;;;;6.12;100.00;101810.31;5033645;28;20189;-62
2022/11/12 09:46:29;;;;;;;20.37;13.90;;;;;;;6.30;100.00;101814.44;5053989;28;20181;-63
2022/11/12 09:49:06;;;;;;;21.83;15.23;;;;;;;6.39;100.00;101808.38;5054459;28;20705;-62
2022/11/12 09:51:35;;;;;;;30.43;15.00;;;;;;;6.58;100.00;101809.03;5043673;28;20542;-63
2022/11/12 09:54:18;;;;;;;19.10;14.70;;;;;;;6.66;100.00;101810.69;5036039;28;20260;-63
2022/11/12 09:56:45;;;;;;;20.43;15.63;;;;;;;6.70;100.00;101813.19;5054014;28;20235;-63
2022/11/12 09:59:12;;;;;;;23.03;15.03;;;;;;;6.72;100.00;101818.28;5036407;28;20592;-64
2022/11/12 10:01:52;;;;;;;70.03;16.17;;;;;;;6.13;100.00;101816.28;5038061;28;20295;-62
2022/11/12 10:04:38;;;;;;;24.27;15.60;;;;;;;6.43;100.00;101811.75;5053973;28;20177;-64
2022/11/12 10:07:37;;;;;;;20.50;15.83;;;;;;;6.43;100.00;101814.31;5035714;28;20200;-63
2022/11/12 10:10:13;;;;;;;30.27;17.13;;;;;;;6.42;100.00;101812.63;5054075;28;20279;-64
2022/11/12 10:12:45;;;;;;;32.17;17.70;;;;;;;6.21;100.00;101808.56;5030828;28;20221;-62
2022/11/12 10:18:15;;;;;;;24.63;18.17;;;;;;;6.59;100.00;101797.13;5053058;28;20200;-63
2022/11/12 10:20:58;;;;;;;35.13;17.77;;;;;;;6.47;100.00;101795.53;5025530;28;20251;-63
2022/11/12 10:23:43;;;;;;;22.90;17.80;;;;;;;6.56;100.00;101794.59;5024141;28;20185;-63
2022/11/12 10:26:19;;;;;;;29.33;18.40;;;;;;;6.59;100.00;101790.28;5035537;28;20226;-63
2022/11/12 10:29:14;;;;;;;26.27;17.87;;;;;;;6.55;100.00;101787.75;5035349;28;20173;-63
2022/11/12 10:31:39;;;;;;;26.23;19.60;;;;;;;6.69;100.00;101785.09;5019767;28;20263;-63
2022/11/12 10:34:34;;;;;;;25.50;18.23;;;;;;;6.66;100.00;101783.41;5053116;28;20615;-63
2022/11/12 10:37:13;;;;;;;23.13;17.17;;;;;;;7.03;100.00;101787.22;5030159;28;20257;-63
2022/11/12 10:39:46;;;;;;;21.03;17.53;;;;;;;7.08;100.00;101790.56;5041937;28;20547;-62
2022/11/12 10:42:20;;;;;;;27.03;17.53;;;;;;;6.87;100.00;101782.31;5024539;28;20229;-63
2022/11/12 10:44:46;;;;;;;24.77;18.07;;;;;;;6.88;100.00;101778.03;5035618;28;20185;-62
2022/11/12 10:47:20;;;;;;;26.07;19.50;;;;;;;6.72;100.00;101770.56;5034663;28;20212;-63
2022/11/12 10:50:15;;;;;;;31.83;19.17;;;;;;;6.79;100.00;101768.75;5053342;28;20185;-62
2022/11/12 10:53:02;;;;;;;26.27;19.37;;;;;;;6.99;100.00;101768.50;4982381;28;20344;-63
2022/11/12 10:55:33;;;;;;;28.07;17.90;;;;;;;7.13;100.00;101770.03;5046969;28;20275;-63
2022/11/12 10:58:10;;;;;;;20.97;17.90;;;;;;;7.19;100.00;101765.69;5041260;28;20242;-62
2022/11/12 11:00:50;;;;;;;24.60;18.10;;;;;;;7.34;100.00;101769.72;5028903;28;20251;-64
2022/11/12 11:03:23;;;;;;;25.57;19.07;;;;;;;7.16;100.00;101765.72;5035560;28;20185;-63
2022/11/12 11:05:51;;;;;;;25.07;19.20;;;;;;;7.08;100.00;101767.53;5052938;28;20173;-62
2022/11/12 11:08:31;;;;;;;25.00;21.00;;;;;;;7.11;100.00;101759.84;5052489;28;20225;-62
2022/11/12 11:11:15;;;;;;;25.13;20.13;;;;;;;7.19;100.00;101755.44;5028146;28;20717;-63
2022/11/12 11:13:42;;;;;;;25.53;20.13;;;;;;;7.33;100.00;101750.16;5040421;28;20527;-63
2022/11/12 11:16:12;;;;;;;26.93;21.30;;;;;;;6.95;100.00;101754.06;5035048;28;20189;-64
2022/11/12 11:18:41;;;;;;;25.37;20.37;;;;;;;6.74;100.00;101750.06;5034394;28;20178;-63
2022/11/12 11:21:40;;;;;;;28.07;22.13;;;;;;;6.59;100.00;101749.38;5025126;28;20229;-62
2022/11/12 11:24:21;;;;;;;33.00;23.17;;;;;;;6.56;100.00;101751.13;5025134;28;20223;-63
2022/11/12 11:27:02;;;;;;;28.00;22.70;;;;;;;6.75;100.00;101752.59;5027895;28;20231;-62
2022/11/12 11:29:43;;;;;;;28.23;22.90;;;;;;;7.08;100.00;101753.03;5052835;28;20184;-62
2022/11/12 11:32:22;;;;;;;27.60;22.63;;;;;;;7.02;100.00;101748.00;5017639;28;20229;-62
2022/11/12 11:34:58;;;;;;;33.40;25.27;;;;;;;6.98;100.00;101758.28;5029918;28;20283;-63
2022/11/12 11:37:25;;;;;;;28.73;25.40;;;;;;;6.91;100.00;101752.44;5030835;28;20689;-62
2022/11/12 11:39:58;;;;;;;29.20;24.83;;;;;;;6.81;100.00;101745.72;5031217;28;20182;-62